createdAt,value
2023-03-02T00:01:14.525Z,29.50
2023-03-02T00:04:17.253Z,31.50
2023-03-02T00:07:21.833Z,31.30
2023-03-02T00:10:23.152Z,31.30
2023-03-02T00:13:24.432Z,31.30
2023-03-02T00:16:26.037Z,31.50
2023-03-02T00:19:27.330Z,31.40
2023-03-02T00:22:29.156Z,31.30
2023-03-02T00:34:39.595Z,29.60
2023-03-02T00:37:41.614Z,31.50
2023-03-02T00:40:44.634Z,31.80
2023-03-02T00:43:45.878Z,31.60
2023-03-02T00:46:47.328Z,31.60
2023-03-02T00:49:48.814Z,31.60
2023-03-02T00:52:50.636Z,31.70
2023-03-02T00:55:52.540Z,31.50
2023-03-02T00:58:53.902Z,31.30
2023-03-02T01:01:57.399Z,31.60
2023-03-02T01:05:00.549Z,31.50
2023-03-02T01:08:02.676Z,31.50
2023-03-02T01:11:11.549Z,31.60
2023-03-02T01:14:12.857Z,31.30
2023-03-02T01:17:15.101Z,31.50
2023-03-02T01:20:16.793Z,31.30
2023-03-02T01:23:18.636Z,31.50
2023-03-02T01:26:19.939Z,31.80
2023-03-02T01:29:21.932Z,31.50
2023-03-02T01:32:23.245Z,31.50
2023-03-02T01:35:24.629Z,31.70
2023-03-02T01:38:27.185Z,31.60
2023-03-02T01:41:28.542Z,31.60
2023-03-02T01:44:33.796Z,31.60
2023-03-02T01:47:36.463Z,31.30
2023-03-02T01:50:44.388Z,31.50
2023-03-02T01:53:49.291Z,31.50
2023-03-02T01:56:52.221Z,31.50
2023-03-02T01:59:55.300Z,31.50
2023-03-02T02:03:07.994Z,31.50
2023-03-02T02:06:17.201Z,31.40
2023-03-02T02:09:20.140Z,31.50
2023-03-02T02:12:22.586Z,31.90
2023-03-02T02:15:23.816Z,31.40
2023-03-02T02:18:25.778Z,31.50
2023-03-02T02:21:27.789Z,31.50
2023-03-02T02:24:34.240Z,31.30
2023-03-02T02:27:36.081Z,31.70
2023-03-02T02:30:38.550Z,31.50
2023-03-02T02:33:41.219Z,31.30
2023-03-02T02:36:46.216Z,31.30
2023-03-02T02:39:53.569Z,31.40
2023-03-02T02:42:56.373Z,31.60
2023-03-02T02:45:58.673Z,31.80
2023-03-02T02:49:02.402Z,31.30
2023-03-02T02:52:04.551Z,32.00
2023-03-02T02:55:05.981Z,31.40
2023-03-02T02:58:13.843Z,31.40
2023-03-02T03:01:19.753Z,31.90
2023-03-02T03:04:23.561Z,31.40
2023-03-02T03:07:24.972Z,31.60
2023-03-02T03:10:34.239Z,31.70
2023-03-02T03:13:36.804Z,31.70
2023-03-02T03:16:39.318Z,31.30
2023-03-02T03:19:45.109Z,31.40
2023-03-02T03:22:46.625Z,31.40
2023-03-02T03:25:49.013Z,31.40
2023-03-02T03:28:51.003Z,31.50
2023-03-02T03:31:53.551Z,31.30
2023-03-02T03:34:56.135Z,31.50
2023-03-02T03:38:02.266Z,31.70
2023-03-02T03:41:04.108Z,31.80
2023-03-02T03:44:06.181Z,31.60
2023-03-02T03:47:09.228Z,31.70
2023-03-02T03:50:10.839Z,31.50
2023-03-02T03:53:12.765Z,31.70
2023-03-02T03:56:14.338Z,31.50
2023-03-02T03:59:17.966Z,31.60
2023-03-02T04:02:24.633Z,31.50
2023-03-02T04:05:26.259Z,31.80
2023-03-02T04:08:28.641Z,31.80
2023-03-02T04:11:31.199Z,31.80
2023-03-02T04:14:33.136Z,31.80
2023-03-02T04:17:35.234Z,31.60
2023-03-02T04:20:39.294Z,31.60
2023-03-02T04:23:41.029Z,31.60
2023-03-02T04:26:43.557Z,31.60
2023-03-02T04:29:45.815Z,31.50
2023-03-02T04:32:47.591Z,31.50
2023-03-02T04:35:49.656Z,31.60
2023-03-02T04:38:51.142Z,31.60
2023-03-02T04:41:53.233Z,31.70
2023-03-02T04:44:56.480Z,31.60
2023-03-02T04:47:57.770Z,31.60
2023-03-02T04:50:59.053Z,31.50
2023-03-02T04:54:01.833Z,31.60
2023-03-02T04:57:03.187Z,31.60
2023-03-02T05:00:09.497Z,31.50
2023-03-02T05:03:10.750Z,31.60
2023-03-02T05:06:12.138Z,31.70
2023-03-02T05:09:13.396Z,31.50
2023-03-02T05:12:15.118Z,31.80
2023-03-02T05:15:21.159Z,31.70
2023-03-02T05:18:23.275Z,31.50
2023-03-02T05:21:25.219Z,31.40
2023-03-02T05:24:26.590Z,31.70
2023-03-02T05:27:27.927Z,31.60
2023-03-02T05:30:31.727Z,31.70
2023-03-02T05:33:33.183Z,31.70
2023-03-02T05:36:35.115Z,31.50
2023-03-02T05:39:36.658Z,31.70
2023-03-02T05:42:39.497Z,31.60
2023-03-02T05:45:41.336Z,31.60
2023-03-02T05:48:44.609Z,31.70
2023-03-02T05:51:51.891Z,31.70
2023-03-02T05:54:53.165Z,31.70
2023-03-02T05:57:54.417Z,31.60
2023-03-02T06:00:56.203Z,31.80
2023-03-02T06:03:57.470Z,31.70
2023-03-02T06:06:58.845Z,31.70
2023-03-02T06:10:00.127Z,31.90
2023-03-02T06:13:01.641Z,31.80
2023-03-02T06:16:03.769Z,31.70
2023-03-02T06:19:05.306Z,31.50
2023-03-02T06:22:07.686Z,31.50
2023-03-02T06:25:10.199Z,31.70
2023-03-02T06:28:11.548Z,31.90
2023-03-02T06:31:13.345Z,31.60
2023-03-02T06:34:14.594Z,31.70
2023-03-02T06:37:15.936Z,31.60
2023-03-02T06:40:17.355Z,31.80
2023-03-02T06:43:18.832Z,31.40
2023-03-02T06:46:22.872Z,31.50
2023-03-02T06:49:24.576Z,31.20
2023-03-02T06:52:28.949Z,30.00
2023-03-02T06:55:30.228Z,31.50
2023-03-02T06:58:31.469Z,31.90
2023-03-02T07:01:35.133Z,31.50
2023-03-02T07:04:36.900Z,31.60
2023-03-02T07:07:38.318Z,31.50
2023-03-02T07:10:39.917Z,31.80
2023-03-02T07:13:41.355Z,31.70
2023-03-02T07:16:43.355Z,31.80
2023-03-02T07:19:44.747Z,31.50
2023-03-02T07:22:46.066Z,31.70
2023-03-02T07:25:47.334Z,31.40
2023-03-02T07:28:48.586Z,31.70
2023-03-02T07:31:56.189Z,31.20
2023-03-02T07:34:57.449Z,31.40
2023-03-02T07:37:58.700Z,31.10
2023-03-02T07:40:59.966Z,31.20
2023-03-02T07:44:01.422Z,30.90
2023-03-02T07:47:03.298Z,31.10
2023-03-02T07:50:05.359Z,30.80
2023-03-02T07:53:06.658Z,31.00
2023-03-02T07:56:10.788Z,30.90
2023-03-02T07:59:12.111Z,30.90
2023-03-02T08:02:15.223Z,30.40
2023-03-02T08:05:16.569Z,30.80
2023-03-02T08:08:17.876Z,30.60
2023-03-02T08:11:19.167Z,30.70
2023-03-02T08:14:20.618Z,30.60
2023-03-02T08:17:22.518Z,30.10
2023-03-02T08:20:23.867Z,30.50
2023-03-02T08:23:25.673Z,30.70
2023-03-02T08:26:27.024Z,30.30
2023-03-02T08:29:28.344Z,30.50
2023-03-02T08:39:34.466Z,29.30
2023-03-02T08:42:35.910Z,29.60
2023-03-02T08:45:40.381Z,29.90
2023-03-02T08:48:42.045Z,30.00
2023-03-02T08:51:48.237Z,30.00
2023-03-02T08:54:50.439Z,30.00
2023-03-02T08:57:56.543Z,30.30
2023-03-02T09:00:58.038Z,30.20
2023-03-02T09:04:00.077Z,30.30
2023-03-02T09:07:01.914Z,30.20
2023-03-02T09:10:04.471Z,30.00
2023-03-02T09:13:09.626Z,30.00
2023-03-02T09:16:12.201Z,30.00
2023-03-02T09:19:14.240Z,30.10
2023-03-02T09:22:18.609Z,30.10
2023-03-02T09:25:20.798Z,30.00
2023-03-02T09:28:22.584Z,30.00
2023-03-02T09:33:21.180Z,30.00
2023-03-02T09:36:24.474Z,30.40
2023-03-02T09:39:26.000Z,30.20
2023-03-02T09:42:43.248Z,30.20
2023-03-02T09:45:53.638Z,30.00
2023-03-02T09:49:11.784Z,30.00
2023-03-02T09:52:31.344Z,30.00
2023-03-02T09:55:36.229Z,30.30
2023-03-02T09:58:39.067Z,30.00
2023-03-02T10:01:45.477Z,30.00
2023-03-02T10:04:52.172Z,29.90
2023-03-02T10:07:55.109Z,29.90
2023-03-02T10:11:05.163Z,29.90
2023-03-02T10:14:12.336Z,29.90
2023-03-02T10:17:29.440Z,29.90
2023-03-02T10:20:42.809Z,30.00
2023-03-02T10:23:48.847Z,30.00
2023-03-02T10:26:55.653Z,29.90
2023-03-02T10:30:01.180Z,29.90
2023-03-02T10:33:07.759Z,29.90
2023-03-02T10:36:21.025Z,29.80
2023-03-02T10:39:22.507Z,29.80
2023-03-02T10:42:26.552Z,29.70
2023-03-02T10:45:32.322Z,29.80
2023-03-02T10:48:49.334Z,29.70
2023-03-02T10:51:57.754Z,29.70
2023-03-02T10:55:03.525Z,29.70
2023-03-02T10:58:07.018Z,29.60
2023-03-02T11:01:16.549Z,29.60
2023-03-02T11:04:23.661Z,29.40
2023-03-02T11:07:28.069Z,29.40
2023-03-02T11:10:37.818Z,29.30
2023-03-02T11:13:39.294Z,29.30
2023-03-02T11:16:40.536Z,29.30
2023-03-02T11:19:43.768Z,29.40
2023-03-02T11:22:54.302Z,29.30
2023-03-02T11:26:00.644Z,29.20
2023-03-02T11:29:08.649Z,29.20
2023-03-02T11:32:15.280Z,29.10
2023-03-02T11:35:28.615Z,29.00
2023-03-02T11:38:36.342Z,28.90
2023-03-02T11:41:38.097Z,29.00
2023-03-02T11:44:47.051Z,28.80
2023-03-02T11:48:01.206Z,28.70
2023-03-02T11:51:10.143Z,28.80
2023-03-02T11:54:38.192Z,28.90
2023-03-02T11:57:47.726Z,29.10
2023-03-02T12:00:50.521Z,28.80
2023-03-02T12:03:52.808Z,28.90
2023-03-02T12:06:54.580Z,28.90
2023-03-02T12:09:59.361Z,28.90
2023-03-02T12:13:14.016Z,29.00
2023-03-02T12:16:20.574Z,28.90
2023-03-02T12:19:27.099Z,29.00
2023-03-02T12:22:30.599Z,29.00
2023-03-02T12:25:50.556Z,29.10
2023-03-02T12:28:59.024Z,29.20
2023-03-02T12:32:11.724Z,29.30
2023-03-02T12:35:18.142Z,29.20
2023-03-02T12:38:28.369Z,29.30
2023-03-02T12:41:46.778Z,29.40
2023-03-02T12:44:56.358Z,29.50
2023-03-02T12:48:03.376Z,29.50
2023-03-02T12:51:12.239Z,29.40
2023-03-02T12:54:15.393Z,29.60
2023-03-02T12:57:21.007Z,29.60
2023-03-02T13:00:26.014Z,29.60
2023-03-02T13:03:30.128Z,29.70
2023-03-02T13:06:36.263Z,29.80
2023-03-02T13:09:42.402Z,29.70
2023-03-02T13:12:49.840Z,29.70
2023-03-02T13:15:55.339Z,29.60
2023-03-02T13:18:58.889Z,29.70
2023-03-02T13:22:00.642Z,29.70
2023-03-02T13:25:05.307Z,29.70
2023-03-02T13:28:24.197Z,29.60
2023-03-02T13:31:25.762Z,29.60
2023-03-02T13:34:30.126Z,29.60
2023-03-02T13:37:38.537Z,29.50
2023-03-02T13:40:43.864Z,29.50
2023-03-02T13:55:45.701Z,29.40
2023-03-02T13:58:49.470Z,29.40
2023-03-02T14:02:01.166Z,29.40
2023-03-02T14:05:03.711Z,29.40
2023-03-02T14:08:06.387Z,29.50
2023-03-02T14:11:10.264Z,29.50
2023-03-02T14:14:16.140Z,29.50
2023-03-02T14:17:22.514Z,29.40
2023-03-02T14:20:24.525Z,29.40
2023-03-02T14:23:27.195Z,29.40
2023-03-02T14:26:34.305Z,29.40
2023-03-02T14:29:37.256Z,29.30
2023-03-02T14:32:38.724Z,29.30
2023-03-02T14:35:43.281Z,29.30
2023-03-02T14:38:47.510Z,29.30
2023-03-02T14:41:53.828Z,29.40
2023-03-02T14:44:59.252Z,29.50
2023-03-02T14:48:01.603Z,29.40
2023-03-02T14:51:03.918Z,29.40
2023-03-02T14:54:08.489Z,29.30
2023-03-02T14:57:17.008Z,29.40
2023-03-02T15:00:19.195Z,29.50
2023-03-02T15:03:24.596Z,29.60
2023-03-02T15:06:28.595Z,29.70
2023-03-02T15:09:30.044Z,29.70
2023-03-02T15:12:31.477Z,29.80
2023-03-02T15:15:32.847Z,29.90
2023-03-02T15:18:35.143Z,29.90
2023-03-02T15:21:46.429Z,29.90
2023-03-02T15:24:48.058Z,30.00
2023-03-02T15:27:52.911Z,30.10
2023-03-02T15:30:57.318Z,30.00
2023-03-02T15:33:59.054Z,30.00
2023-03-02T15:37:01.096Z,30.10
2023-03-02T15:40:02.920Z,30.10
2023-03-02T15:43:04.345Z,30.20
2023-03-02T15:46:06.170Z,30.30
2023-03-02T15:49:08.133Z,30.30
2023-03-02T15:52:11.062Z,30.20
2023-03-02T15:55:14.650Z,30.20
2023-03-02T15:58:16.984Z,30.30
2023-03-02T16:01:18.710Z,30.30
2023-03-02T16:04:20.166Z,30.30
2023-03-02T16:07:22.166Z,30.30
2023-03-02T16:10:25.959Z,30.40
2023-03-02T16:13:34.536Z,30.40
2023-03-02T16:16:36.108Z,30.40
2023-03-02T16:19:37.821Z,30.50
2023-03-02T16:22:42.604Z,30.60
2023-03-02T16:25:46.764Z,30.60
2023-03-02T16:28:48.344Z,31.20
2023-03-02T16:31:49.934Z,30.50
2023-03-02T16:34:55.432Z,31.30
2023-03-02T16:37:57.543Z,30.70
2023-03-02T16:40:59.227Z,30.60
2023-03-02T16:44:01.191Z,30.70
2023-03-02T16:47:02.852Z,30.70
2023-03-02T16:50:05.561Z,30.70
2023-03-02T16:53:07.617Z,30.70
2023-03-02T16:56:11.117Z,30.70
2023-03-02T16:59:12.769Z,30.80
2023-03-02T17:02:15.208Z,30.70
2023-03-02T17:05:18.919Z,30.90
2023-03-02T17:08:20.959Z,30.80
2023-03-02T17:11:22.495Z,30.80
2023-03-02T17:14:24.293Z,30.80
2023-03-02T17:17:25.757Z,30.80
2023-03-02T17:20:27.417Z,31.00
2023-03-02T17:23:31.000Z,30.90
2023-03-02T17:26:32.418Z,30.90
2023-03-02T17:29:33.675Z,30.90
2023-03-02T17:32:35.330Z,31.10
2023-03-02T17:35:38.034Z,30.90
2023-03-02T17:38:40.404Z,31.10
2023-03-02T17:41:41.820Z,31.10
2023-03-02T17:44:44.212Z,31.00
2023-03-02T17:47:48.318Z,31.10
2023-03-02T17:50:49.715Z,31.00
2023-03-02T17:53:52.302Z,31.10
2023-03-02T17:56:53.734Z,31.00
2023-03-02T17:59:56.656Z,31.00
2023-03-02T18:02:58.385Z,31.00
2023-03-02T18:05:59.797Z,31.10
2023-03-02T18:09:01.700Z,31.00
2023-03-02T18:12:03.479Z,31.00
2023-03-02T18:15:06.455Z,31.10
2023-03-02T18:18:07.910Z,31.10
2023-03-02T18:21:09.468Z,31.10
2023-03-02T18:24:11.751Z,31.30
2023-03-02T18:27:13.150Z,31.10
2023-03-02T18:30:14.773Z,31.10
2023-03-02T18:33:16.444Z,31.20
2023-03-02T18:36:17.929Z,31.00
2023-03-02T18:39:19.840Z,31.20
2023-03-02T18:42:21.608Z,31.10
2023-03-02T18:45:25.761Z,31.00
2023-03-02T18:48:31.164Z,30.90
2023-03-02T18:51:32.718Z,31.00
2023-03-02T18:54:34.781Z,30.90
2023-03-02T18:57:37.313Z,31.00
2023-03-02T19:00:39.020Z,30.80
2023-03-02T19:03:41.099Z,30.90
2023-03-02T19:06:43.212Z,30.90
2023-03-02T19:09:45.180Z,30.80
2023-03-02T19:12:46.569Z,30.90
2023-03-02T19:15:48.336Z,31.00
2023-03-02T19:18:50.057Z,30.90
2023-03-02T19:21:52.676Z,30.90
2023-03-02T19:24:54.611Z,31.00
2023-03-02T19:27:56.204Z,31.10
2023-03-02T19:31:01.641Z,30.90
2023-03-02T19:34:04.698Z,31.00
2023-03-02T19:37:06.273Z,31.00
2023-03-02T19:40:12.712Z,31.00
2023-03-02T19:43:14.173Z,31.00
2023-03-02T19:46:16.297Z,31.00
2023-03-02T19:49:17.817Z,31.20
2023-03-02T19:52:19.164Z,31.10
2023-03-02T19:55:23.380Z,31.20
2023-03-02T19:58:26.027Z,31.10
2023-03-02T20:01:29.208Z,31.20
2023-03-02T20:04:30.824Z,31.30
2023-03-02T20:07:32.249Z,31.20
2023-03-02T20:10:36.878Z,31.30
2023-03-02T20:13:38.400Z,31.30
2023-03-02T20:16:39.734Z,31.20
2023-03-02T20:19:43.161Z,31.40
2023-03-02T20:22:44.823Z,31.30
2023-03-02T20:25:48.441Z,31.50
2023-03-02T20:28:51.466Z,32.10
2023-03-02T20:31:52.919Z,31.50
2023-03-02T20:34:54.432Z,31.40
2023-03-02T20:37:57.680Z,31.60
2023-03-02T20:41:00.041Z,31.60
2023-03-02T20:44:01.740Z,31.70
2023-03-02T20:47:07.405Z,31.70
2023-03-02T20:50:12.295Z,31.60
2023-03-02T20:53:14.556Z,31.80
2023-03-02T20:56:17.767Z,31.80
2023-03-02T20:59:19.809Z,31.90
2023-03-02T21:02:22.336Z,31.80
2023-03-02T21:05:25.077Z,31.90
2023-03-02T21:08:26.717Z,31.80
2023-03-02T21:11:30.337Z,31.90
2023-03-02T21:14:32.493Z,31.90
2023-03-02T21:17:34.794Z,31.90
2023-03-02T21:20:38.355Z,32.00
2023-03-02T21:23:40.836Z,31.80
2023-03-02T21:26:43.762Z,31.90
2023-03-02T21:29:46.923Z,32.10
2023-03-02T21:32:48.919Z,32.00
2023-03-02T21:35:50.558Z,32.10
2023-03-02T21:38:52.645Z,32.10
2023-03-02T21:41:54.939Z,32.10
2023-03-02T21:44:56.386Z,32.10
2023-03-02T21:47:57.676Z,32.20
2023-03-02T21:50:59.304Z,32.20
2023-03-02T21:54:01.634Z,32.00
2023-03-02T21:57:06.540Z,32.20
2023-03-02T22:00:09.773Z,32.10
2023-03-02T22:03:11.485Z,32.30
2023-03-02T22:06:17.100Z,32.30
2023-03-02T22:09:19.560Z,32.20
2023-03-02T22:12:22.799Z,32.20
2023-03-02T22:15:24.467Z,32.30
2023-03-02T22:18:26.239Z,32.30
2023-03-02T22:21:30.290Z,32.40
2023-03-02T22:24:33.483Z,32.30
2023-03-02T22:27:35.462Z,32.40
2023-03-02T22:30:36.889Z,32.40
2023-03-02T22:33:40.318Z,32.60
2023-03-02T22:36:42.174Z,32.60
2023-03-02T22:39:48.546Z,32.50
2023-03-02T22:42:52.954Z,32.60
2023-03-02T22:45:58.904Z,32.80
2023-03-02T22:49:00.341Z,32.70
2023-03-02T22:52:10.689Z,32.80
2023-03-02T22:55:33.260Z,32.90
2023-03-02T22:58:50.780Z,32.80
2023-03-02T23:01:54.505Z,33.10
2023-03-02T23:04:55.854Z,32.90
2023-03-02T23:08:14.462Z,33.00
2023-03-02T23:11:18.204Z,33.20
2023-03-02T23:14:25.456Z,33.20
2023-03-02T23:17:33.698Z,33.60
2023-03-02T23:20:35.059Z,33.10
2023-03-02T23:23:36.411Z,33.20
2023-03-02T23:26:38.694Z,33.30
2023-03-02T23:29:40.831Z,33.30
2023-03-02T23:32:42.259Z,33.40
2023-03-02T23:35:43.660Z,33.40
2023-03-02T23:38:45.204Z,33.40
2023-03-02T23:41:46.889Z,33.30
2023-03-02T23:44:48.997Z,33.30
2023-03-02T23:47:50.505Z,33.40
2023-03-02T23:50:52.143Z,33.50
2023-03-02T23:53:54.023Z,33.40
2023-03-02T23:56:55.443Z,33.40
2023-03-02T23:59:57.387Z,33.50
